Time;durP1;ratioP1;P1;durP2;ratioP2;P2;SDS_P1;SDS_P2;PMS_P1;PMS_P2;Temp;Humidity;BMP_temperature;BMP_pressure;BME280_temperature;BME280_humidity;BME280_pressure;Samples;Min_cycle;Max_cycle;Signal;HPM_P1;HPM_P2
2021/12/08 00:00:14;;;;;;;0.98;0.82;;;;;;;16.67;61.25;98240.34;3847336;23;20024;-56
2021/12/08 00:01:46;;;;;;;0.88;0.47;;;;;;;16.64;61.24;98235.41;3849178;23;20025;-55
2021/12/08 00:03:20;;;;;;;1.58;0.88;;;;;;;16.63;61.28;98232.91;3845721;23;20542;-55
2021/12/08 00:04:52;;;;;;;0.82;0.68;;;;;;;16.63;61.30;98235.59;3845258;23;20299;-57
2021/12/08 00:06:24;;;;;;;1.00;0.50;;;;;;;16.60;61.29;98236.81;3846820;23;20074;-57
2021/12/08 00:07:57;;;;;;;0.82;0.82;;;;;;;16.58;61.25;98228.19;3847558;23;20394;-54
2021/12/08 00:09:45;;;;;;;0.63;0.63;;;;;;;16.57;61.32;98231.84;3845764;23;20668;-57
2021/12/08 00:13:09;;;;;;;0.75;0.35;;;;;;;16.54;61.29;98221.56;3846040;23;20029;-56
2021/12/08 00:14:41;;;;;;;0.65;0.60;;;;;;;16.52;61.33;98224.44;3846705;23;20332;-56
2021/12/08 00:16:14;;;;;;;0.95;0.60;;;;;;;16.50;61.42;98209.59;3848786;23;20111;-53
2021/12/08 00:17:46;;;;;;;0.82;0.47;;;;;;;16.48;61.42;98206.31;3847193;23;20374;-55
2021/12/08 00:19:18;;;;;;;0.60;0.60;;;;;;;16.46;61.49;98197.63;3846560;23;20091;-57
2021/12/08 00:20:51;;;;;;;1.33;0.77;;;;;;;16.46;61.60;98195.78;3847732;23;20023;-56
2021/12/08 00:22:23;;;;;;;0.73;0.60;;;;;;;16.45;61.32;98196.00;3847047;23;20048;-54
2021/12/08 00:23:55;;;;;;;1.35;0.80;;;;;;;16.45;61.48;98190.63;3845414;23;20737;-56
2021/12/08 00:25:27;;;;;;;0.90;0.55;;;;;;;16.42;61.45;98193.72;3846650;23;20024;-56
2021/12/08 00:26:59;;;;;;;0.70;0.68;;;;;;;16.40;61.52;98198.44;3847196;23;20074;-56
2021/12/08 00:28:33;;;;;;;0.50;0.50;;;;;;;16.38;61.50;98195.13;3846563;23;20367;-56
2021/12/08 00:30:08;;;;;;;0.60;0.50;;;;;;;16.36;61.45;98198.03;3847276;23;20613;-56
2021/12/08 00:31:40;;;;;;;0.80;0.50;;;;;;;16.35;61.55;98199.03;3845370;23;20027;-56
2021/12/08 00:33:14;;;;;;;0.28;0.28;;;;;;;16.31;61.50;98197.78;3846268;23;20024;-57
2021/12/08 00:34:45;;;;;;;0.75;0.55;;;;;;;16.31;61.70;98195.13;3846859;23;20379;-55
2021/12/08 00:36:28;;;;;;;;;;;;;;;16.26;61.68;98198.38;3847489;23;20518;-57
2021/12/08 00:38:01;;;;;;;1.20;0.68;;;;;;;16.27;61.65;98205.41;3847471;23;19920;-56
2021/12/08 00:39:34;;;;;;;1.13;0.75;;;;;;;16.24;61.76;98187.06;3845457;23;20021;-56
2021/12/08 00:41:05;;;;;;;0.70;0.55;;;;;;;16.24;61.67;98191.56;3848698;23;20025;-55
2021/12/08 00:42:37;;;;;;;0.75;0.50;;;;;;;16.23;61.75;98192.59;3847150;23;20028;-56
2021/12/08 00:44:09;;;;;;;0.50;0.50;;;;;;;16.21;61.71;98192.78;3846916;23;20035;-56
2021/12/08 00:45:42;;;;;;;1.27;0.63;;;;;;;16.21;61.70;98192.78;3847396;23;20028;-56
2021/12/08 00:47:14;;;;;;;1.63;0.93;;;;;;;16.18;61.72;98185.16;3848344;23;20067;-56
2021/12/08 00:48:49;;;;;;;1.38;0.95;;;;;;;16.17;61.76;98191.53;3845682;23;20024;-57
2021/12/08 00:50:23;;;;;;;0.50;0.50;;;;;;;16.15;61.68;98188.25;3847264;23;20032;-55
2021/12/08 00:51:56;;;;;;;1.13;0.70;;;;;;;16.14;61.62;98185.78;3847997;23;20027;-55
2021/12/08 00:53:27;;;;;;;0.75;0.55;;;;;;;16.12;61.75;98191.31;3846514;23;20029;-53
2021/12/08 00:55:00;;;;;;;0.82;0.80;;;;;;;16.11;61.75;98184.31;3846866;23;20044;-56
2021/12/08 00:56:32;;;;;;;1.45;0.80;;;;;;;16.09;61.68;98191.72;3845329;23;20020;-56
2021/12/08 00:58:04;;;;;;;1.60;0.77;;;;;;;16.06;61.76;98186.75;3847842;23;20025;-56
2021/12/08 00:59:36;;;;;;;1.85;0.75;;;;;;;16.05;61.71;98185.94;3847724;23;20025;-55
2021/12/08 01:01:10;;;;;;;1.05;0.68;;;;;;;16.05;61.83;98191.28;3846929;23;20090;-56
2021/12/08 01:02:42;;;;;;;0.90;0.60;;;;;;;16.02;61.87;98185.53;3847545;23;20024;-55
2021/12/08 01:04:15;;;;;;;0.63;0.57;;;;;;;16.02;61.79;98196.22;3846045;23;20031;-56
2021/12/08 01:05:49;;;;;;;0.95;0.50;;;;;;;16.01;61.76;98194.53;3846948;23;20024;-56
2021/12/08 01:07:21;;;;;;;1.50;0.60;;;;;;;15.99;61.77;98193.91;3847139;23;20051;-56
2021/12/08 01:08:53;;;;;;;0.88;0.52;;;;;;;15.99;61.78;98191.22;3845704;23;20091;-55
2021/12/08 01:10:28;;;;;;;0.43;0.40;;;;;;;15.97;61.82;98194.13;3846348;23;20021;-55
2021/12/08 01:12:02;;;;;;;1.33;0.70;;;;;;;15.96;61.85;98186.28;3846508;23;20605;-56
2021/12/08 01:13:34;;;;;;;1.17;0.68;;;;;;;15.94;61.82;98189.19;3843343;23;20025;-55
2021/12/08 01:15:07;;;;;;;1.13;0.68;;;;;;;15.93;61.87;98189.34;3846779;23;20040;-57
2021/12/08 01:16:40;;;;;;;1.05;0.57;;;;;;;15.91;61.87;98191.38;3847323;23;20052;-57
2021/12/08 01:18:13;;;;;;;1.00;0.63;;;;;;;15.89;61.96;98196.13;3846537;23;20021;-57
2021/12/08 01:19:45;;;;;;;0.52;0.50;;;;;;;15.90;61.79;98190.56;3847475;23;20021;-55
2021/12/08 01:21:18;;;;;;;1.30;1.20;;;;;;;15.89;61.83;98188.09;3846951;23;20529;-56
2021/12/08 01:22:50;;;;;;;1.25;0.90;;;;;;;15.86;61.84;98184.81;3846700;23;20051;-56
2021/12/08 01:24:22;;;;;;;1.02;0.60;;;;;;;15.85;61.90;98184.97;3845592;23;20127;-57
2021/12/08 01:25:54;;;;;;;0.75;0.50;;;;;;;15.83;61.88;98182.53;3845943;23;20024;-56
2021/12/08 01:27:26;;;;;;;0.50;0.38;;;;;;;15.81;61.89;98183.75;3847235;23;20044;-57
2021/12/08 01:28:58;;;;;;;1.63;0.88;;;;;;;15.79;61.92;98186.59;3844718;23;20031;-56
2021/12/08 01:30:30;;;;;;;1.42;0.88;;;;;;;15.77;62.00;98177.16;3846140;23;20029;-54
2021/12/08 01:32:06;;;;;;;0.68;0.68;;;;;;;15.77;62.12;98177.97;3844494;23;20017;-57
2021/12/08 01:33:38;;;;;;;0.40;0.40;;;;;;;15.75;62.08;98177.31;3846755;23;20027;-53
2021/12/08 01:35:11;;;;;;;0.60;0.50;;;;;;;15.74;62.07;98173.00;3847188;23;20395;-54
2021/12/08 01:36:43;;;;;;;1.52;0.88;;;;;;;15.73;61.89;98162.50;3846303;23;20409;-57
2021/12/08 01:38:15;;;;;;;1.23;0.95;;;;;;;15.73;62.00;98163.31;3845972;23;20533;-58
2021/12/08 01:39:47;;;;;;;0.60;0.60;;;;;;;15.72;61.87;98152.84;3846811;23;20020;-56
2021/12/08 01:41:21;;;;;;;0.60;0.40;;;;;;;15.71;61.82;98156.50;3845845;23;20025;-58
2021/12/08 01:42:56;;;;;;;0.88;0.73;;;;;;;15.68;61.96;98152.38;3847189;23;20048;-55
2021/12/08 01:46:23;;;;;;;1.23;0.40;;;;;;;15.66;61.97;98138.38;3846833;23;20028;-52
2021/12/08 01:47:55;;;;;;;1.90;0.57;;;;;;;15.64;61.86;98135.88;3846033;23;20055;-53
2021/12/08 01:49:27;;;;;;;1.13;0.50;;;;;;;15.64;61.96;98129.72;3847292;23;20613;-56
2021/12/08 01:51:01;;;;;;;0.88;0.70;;;;;;;15.61;61.96;98124.78;3846086;23;20017;-58
2021/12/08 01:52:33;;;;;;;0.60;0.55;;;;;;;15.59;62.02;98118.78;3843425;23;20104;-55
2021/12/08 01:54:06;;;;;;;1.30;0.80;;;;;;;15.57;62.16;98115.47;3847024;23;20025;-55
2021/12/08 01:55:40;;;;;;;0.77;0.50;;;;;;;15.57;62.10;98118.16;3843364;23;20024;-56
2021/12/08 01:57:12;;;;;;;0.68;0.68;;;;;;;15.55;62.10;98110.34;3846039;23;20021;-57
2021/12/08 01:58:43;;;;;;;0.85;0.40;;;;;;;15.53;62.09;98107.03;3846470;23;20028;-53
2021/12/08 02:00:22;;;;;;;0.77;0.75;;;;;;;15.51;62.33;98109.06;3847926;23;20020;-57
2021/12/08 02:01:54;;;;;;;1.00;0.73;;;;;;;15.49;62.21;98108.47;3848606;23;20032;-51
2021/12/08 02:03:29;;;;;;;1.58;0.85;;;;;;;15.49;62.05;98103.13;3846117;23;20079;-53
2021/12/08 02:05:01;;;;;;;1.05;0.95;;;;;;;15.50;62.03;98091.38;3844724;23;20471;-57
2021/12/08 02:06:35;;;;;;;0.55;0.40;;;;;;;15.51;62.03;98086.88;3846892;23;20082;-59
2021/12/08 02:08:07;;;;;;;1.00;0.70;;;;;;;15.47;62.07;98080.28;3847002;23;20204;-53
2021/12/08 02:09:40;;;;;;;1.42;0.60;;;;;;;15.46;62.11;98075.94;3845944;23;20021;-57
2021/12/08 02:11:12;;;;;;;0.77;0.68;;;;;;;15.48;62.07;98088.09;3847057;23;20081;-59
2021/12/08 02:12:42;;;;;;;0.57;0.30;;;;;;;15.48;62.09;98079.25;3846100;23;20048;-56
2021/12/08 02:14:15;;;;;;;1.73;0.93;;;;;;;15.49;62.04;98073.72;3846823;23;20534;-52
2021/12/08 02:15:49;;;;;;;1.30;0.68;;;;;;;15.50;61.97;98071.88;3846621;23;20055;-51
2021/12/08 02:17:21;;;;;;;1.15;0.80;;;;;;;15.50;61.90;98070.00;3847285;23;20056;-53
2021/12/08 02:18:54;;;;;;;1.50;0.45;;;;;;;15.50;62.01;98062.00;3846897;23;20040;-57
2021/12/08 02:20:30;;;;;;;1.10;0.60;;;;;;;15.52;61.93;98056.47;3847068;23;20028;-54
2021/12/08 02:22:03;;;;;;;0.77;0.50;;;;;;;15.50;61.85;98056.66;3846462;23;20025;-52
2021/12/08 02:23:35;;;;;;;0.80;0.80;;;;;;;15.50;62.07;98064.66;3845733;23;20128;-57
2021/12/08 02:25:09;;;;;;;1.02;0.52;;;;;;;15.49;62.09;98054.16;3846713;23;20052;-53
2021/12/08 02:26:44;;;;;;;0.93;0.70;;;;;;;15.50;62.07;98053.16;3847347;23;20031;-57
2021/12/08 02:28:15;;;;;;;0.85;0.50;;;;;;;15.47;62.11;98051.69;3846857;23;20143;-61
2021/12/08 02:29:53;;;;;;;0.40;0.40;;;;;;;15.47;62.09;98046.34;3847281;23;20024;-57
2021/12/08 02:31:33;;;;;;;0.47;0.47;;;;;;;15.48;61.91;98060.53;3845365;23;20025;-59
2021/12/08 02:47:53;;;;;;;0.95;0.73;;;;;;;15.39;62.29;98046.50;3847571;23;20107;-57
2021/12/08 02:49:24;;;;;;;0.90;0.45;;;;;;;15.38;62.18;98039.53;3846391;23;20479;-57
2021/12/08 02:50:57;;;;;;;0.60;0.60;;;;;;;15.38;62.21;98045.69;3846836;23;20111;-55
2021/12/08 02:52:29;;;;;;;1.38;0.80;;;;;;;15.38;62.19;98043.03;3847807;23;20032;-58
2021/12/08 02:54:03;;;;;;;1.75;0.65;;;;;;;15.37;62.06;98032.50;3846912;23;20043;-50
2021/12/08 02:55:36;;;;;;;1.05;0.50;;;;;;;15.35;62.17;98027.38;3844065;23;20485;-53
2021/12/08 02:57:09;;;;;;;1.00;0.40;;;;;;;15.36;62.14;98020.19;3846747;23;20107;-56
2021/12/08 02:58:41;;;;;;;0.70;0.70;;;;;;;15.33;62.13;98024.06;3846941;23;20032;-55
2021/12/08 03:00:16;;;;;;;1.27;0.55;;;;;;;15.35;62.06;98022.03;3847451;23;20021;-52
2021/12/08 03:01:48;;;;;;;1.35;0.60;;;;;;;15.32;62.10;98014.44;3849866;23;20025;-55
2021/12/08 03:03:20;;;;;;;;;;;;;;;15.30;62.25;98011.13;3849565;23;20036;-52
2021/12/08 03:04:51;;;;;;;0.60;0.60;;;;;;;15.30;62.26;98008.44;3847642;23;19924;-55
2021/12/08 03:06:24;;;;;;;1.02;0.82;;;;;;;15.30;62.28;98005.78;3849225;23;20025;-55
2021/12/08 03:07:57;;;;;;;1.02;0.73;;;;;;;15.29;62.19;98004.09;3849492;23;20098;-52
2021/12/08 03:09:30;;;;;;;1.15;0.60;;;;;;;15.28;62.17;98004.31;3849184;23;20055;-57
2021/12/08 03:11:02;;;;;;;0.57;0.38;;;;;;;15.27;62.15;98010.69;3850181;23;20024;-55
2021/12/08 03:12:34;;;;;;;1.02;0.60;;;;;;;15.26;62.46;98007.16;3848892;23;20032;-53
2021/12/08 03:14:13;;;;;;;0.77;0.60;;;;;;;15.25;62.36;98010.88;3847783;23;20051;-57
2021/12/08 03:15:45;;;;;;;0.95;0.60;;;;;;;15.23;62.32;98007.56;3850107;23;20067;-55
2021/12/08 03:17:17;;;;;;;0.93;0.45;;;;;;;15.23;62.39;98004.91;3849988;23;20017;-58
2021/12/08 03:18:49;;;;;;;0.77;0.47;;;;;;;15.22;62.30;97997.09;3850562;23;20055;-52
2021/12/08 03:20:28;;;;;;;0.88;0.88;;;;;;;15.22;62.35;97994.44;3851132;23;20077;-56
2021/12/08 03:22:03;;;;;;;0.98;0.43;;;;;;;15.20;62.20;97997.28;3849566;23;20033;-57
2021/12/08 03:23:46;;;;;;;0.55;0.50;;;;;;;15.19;62.16;97993.78;3848513;23;20028;-55
2021/12/08 03:25:23;;;;;;;0.95;0.85;;;;;;;15.17;62.20;97995.00;3847546;23;20025;-57
2021/12/08 03:27:06;;;;;;;0.82;0.52;;;;;;;15.15;62.22;97992.50;3849054;23;20032;-56
2021/12/08 03:28:45;;;;;;;0.47;0.30;;;;;;;15.16;62.32;97991.50;3848960;23;20725;-59
2021/12/08 03:30:22;;;;;;;0.80;0.80;;;;;;;15.14;62.29;97985.53;3848379;23;20743;-53
2021/12/08 03:32:02;;;;;;;0.98;0.60;;;;;;;15.13;62.23;97989.25;3846673;23;20100;-55
2021/12/08 03:33:34;;;;;;;1.13;0.60;;;;;;;15.11;62.43;97983.25;3847906;23;20051;-53
2021/12/08 03:35:09;;;;;;;0.70;0.70;;;;;;;15.11;62.21;97977.91;3848292;23;20103;-58
2021/12/08 03:36:40;;;;;;;0.57;0.55;;;;;;;15.10;62.28;97978.09;3848877;23;20048;-55
2021/12/08 03:38:12;;;;;;;1.08;0.57;;;;;;;15.09;62.39;97974.63;3848680;23;20028;-53
2021/12/08 03:39:43;;;;;;;;;;;;;;;15.08;62.47;97966.81;3849315;23;20052;-53
2021/12/08 03:41:16;;;;;;;0.80;0.80;;;;;;;15.06;62.35;97961.66;3847032;23;19923;-56
2021/12/08 03:42:50;;;;;;;0.50;0.50;;;;;;;15.07;62.28;97960.66;3849527;23;20044;-57
2021/12/08 03:44:22;;;;;;;0.82;0.55;;;;;;;15.05;62.16;97961.88;3848388;23;20079;-56
2021/12/08 03:45:56;;;;;;;0.93;0.85;;;;;;;15.05;62.37;97959.19;3848686;23;20094;-54
2021/12/08 03:47:29;;;;;;;0.85;0.63;;;;;;;15.04;62.47;97968.22;3848985;23;20134;-58
2021/12/08 03:49:05;;;;;;;0.80;0.60;;;;;;;15.03;62.48;97964.72;3848873;23;20483;-50
2021/12/08 03:50:40;;;;;;;0.60;0.50;;;;;;;15.02;62.18;97962.25;3848052;23;20024;-50
2021/12/08 03:52:12;;;;;;;0.70;0.55;;;;;;;15.02;62.27;97960.41;3845110;23;20048;-58
2021/12/08 03:53:44;;;;;;;0.50;0.50;;;;;;;15.02;62.48;97962.25;3847504;23;20020;-52
2021/12/08 03:55:16;;;;;;;0.93;0.52;;;;;;;15.00;62.36;97951.75;3848608;23;20032;-55
2021/12/08 03:56:50;;;;;;;0.40;0.30;;;;;;;14.97;62.33;97947.63;3848968;23;20537;-57
2021/12/08 03:58:22;;;;;;;0.63;0.60;;;;;;;14.96;62.47;97954.00;3847144;23;20082;-54
2021/12/08 03:59:54;;;;;;;1.50;0.93;;;;;;;14.96;62.45;97940.66;3847523;23;20078;-55
2021/12/08 04:01:25;;;;;;;;;;;;;;;14.98;62.31;97945.78;3849015;23;20100;-52
2021/12/08 04:02:58;;;;;;;3.53;0.80;;;;;;;15.00;62.29;97942.94;3848689;23;20342;-52
2021/12/08 04:04:30;;;;;;;1.10;0.63;;;;;;;15.01;62.18;97936.56;3847759;23;20029;-60
2021/12/08 04:06:13;;;;;;;1.15;1.05;;;;;;;15.04;62.19;97946.84;3848329;23;20033;-55
2021/12/08 04:07:45;;;;;;;0.80;0.57;;;;;;;15.05;62.36;97943.19;3846499;23;20060;-60
2021/12/08 04:09:26;;;;;;;0.65;0.43;;;;;;;15.06;62.21;97945.63;3847455;23;20027;-56
2021/12/08 04:10:59;;;;;;;0.73;0.60;;;;;;;15.07;62.16;97946.44;3848624;23;20031;-54
2021/12/08 04:12:33;;;;;;;0.50;0.50;;;;;;;15.08;62.17;97948.94;3847722;23;20058;-56
2021/12/08 04:14:09;;;;;;;1.27;0.60;;;;;;;15.07;62.22;97938.44;3847542;23;20116;-56
2021/12/08 04:15:41;;;;;;;0.93;0.60;;;;;;;15.07;62.19;97936.63;3847651;23;20032;-56
2021/12/08 04:17:18;;;;;;;0.88;0.88;;;;;;;15.06;62.11;97934.13;3847646;23;20032;-56
2021/12/08 04:18:51;;;;;;;0.50;0.40;;;;;;;15.06;61.96;97939.47;3848465;23;20020;-54
2021/12/08 04:20:25;;;;;;;0.68;0.55;;;;;;;15.06;62.07;97934.13;3847594;23;20078;-55
2021/12/08 04:22:00;;;;;;;0.93;0.50;;;;;;;15.06;62.14;97928.78;3848399;23;20079;-49
2021/12/08 04:23:36;;;;;;;0.30;0.30;;;;;;;15.05;62.22;97933.31;3846871;23;20051;-58
2021/12/08 04:25:11;;;;;;;1.45;0.88;;;;;;;15.05;62.41;97932.50;3844236;23;20025;-60
2021/12/08 04:26:49;;;;;;;0.63;0.60;;;;;;;15.05;62.12;97922.63;3846471;23;20683;-53
2021/12/08 04:28:26;;;;;;;1.20;0.63;;;;;;;15.03;62.20;97919.31;3846546;23;20485;-53
2021/12/08 04:29:58;;;;;;;1.83;0.68;;;;;;;15.04;62.13;97917.47;3848091;23;20123;-57
2021/12/08 04:31:34;;;;;;;1.45;0.70;;;;;;;15.03;62.15;97907.81;3847235;23;20605;-54
2021/12/08 04:33:08;;;;;;;0.80;0.57;;;;;;;15.03;62.29;97913.16;3846563;23;20048;-57
2021/12/08 04:34:41;;;;;;;0.85;0.50;;;;;;;15.00;62.55;97900.22;3847413;23;20052;-53
2021/12/08 04:36:15;;;;;;;0.63;0.45;;;;;;;15.03;62.20;97897.13;3847826;23;20021;-53
2021/12/08 04:37:51;;;;;;;0.98;0.77;;;;;;;15.01;62.05;97896.50;3847600;23;20029;-54
2021/12/08 04:39:31;;;;;;;1.42;0.70;;;;;;;15.00;62.19;97903.69;3847703;23;20093;-54
2021/12/08 04:41:09;;;;;;;1.05;0.88;;;;;;;15.00;62.21;97901.03;3846979;23;20035;-55
2021/12/08 04:42:55;;;;;;;1.08;0.95;;;;;;;15.00;62.14;97902.88;3847145;23;20020;-56
2021/12/08 04:44:35;;;;;;;0.98;0.70;;;;;;;14.98;62.24;97908.41;3845913;23;20079;-56
2021/12/08 04:46:17;;;;;;;0.55;0.52;;;;;;;14.97;62.26;97902.25;3846806;23;20122;-58
2021/12/08 04:48:08;;;;;;;0.80;0.50;;;;;;;14.96;62.35;97903.28;3845672;23;20025;-56
2021/12/08 04:50:13;;;;;;;0.70;0.43;;;;;;;14.95;62.16;97901.59;3846996;23;20028;-57
2021/12/08 04:51:52;;;;;;;0.88;0.75;;;;;;;14.95;62.25;97898.94;3846340;23;20024;-56
2021/12/08 04:53:38;;;;;;;1.30;0.82;;;;;;;14.95;62.31;97898.13;3845981;23;20462;-58
2021/12/08 05:01:17;;;;;;;0.75;0.70;;;;;;;14.92;62.28;97885.16;3852373;23;20029;-55
2021/12/08 05:03:16;;;;;;;0.77;0.77;;;;;;;14.90;62.37;97871.19;3846908;23;20024;-57
2021/12/08 05:05:04;;;;;;;0.95;0.50;;;;;;;14.88;62.48;97870.59;3847089;23;20025;-57
2021/12/08 05:06:45;;;;;;;0.93;0.80;;;;;;;14.90;62.17;97865.84;3845056;23;20108;-59
2021/12/08 05:08:21;;;;;;;0.65;0.63;;;;;;;14.92;62.37;97869.16;3845552;23;20463;-58
2021/12/08 05:09:53;;;;;;;0.70;0.63;;;;;;;14.95;62.22;97861.56;3847138;23;20036;-55
2021/12/08 05:11:27;;;;;;;0.80;0.60;;;;;;;15.04;62.27;97856.03;3846259;23;20017;-56
2021/12/08 05:13:03;;;;;;;1.42;0.82;;;;;;;15.11;61.96;97854.25;3846521;23;20055;-57
2021/12/08 05:14:38;;;;;;;1.85;0.70;;;;;;;15.19;61.86;97854.88;3844657;23;20029;-56
2021/12/08 05:16:12;;;;;;;1.30;0.93;;;;;;;15.26;61.78;97857.56;3844321;23;20028;-55
2021/12/08 05:17:49;;;;;;;0.60;0.30;;;;;;;15.35;61.93;97858.19;3845854;23;20044;-58
2021/12/08 05:19:24;;;;;;;0.57;0.43;;;;;;;15.40;61.74;97850.41;3846198;23;20047;-55
2021/12/08 05:21:02;;;;;;;0.98;0.75;;;;;;;15.47;61.58;97850.44;3847075;23;20024;-57
2021/12/08 05:22:37;;;;;;;0.98;0.50;;;;;;;15.52;61.50;97843.47;3845853;23;20021;-57
2021/12/08 05:24:13;;;;;;;0.90;0.63;;;;;;;15.60;61.52;97850.44;3845167;23;20052;-56
2021/12/08 05:25:46;;;;;;;0.55;0.55;;;;;;;15.65;61.50;97853.34;3845138;23;20021;-57
2021/12/08 05:27:22;;;;;;;1.15;0.70;;;;;;;15.71;61.43;97852.59;3846478;23;20051;-56
2021/12/08 05:29:01;;;;;;;0.82;0.60;;;;;;;15.76;61.31;97854.63;3847551;23;20028;-56
2021/12/08 05:30:39;;;;;;;0.68;0.68;;;;;;;15.81;61.12;97839.63;3852699;23;20040;-56
2021/12/08 05:32:13;;;;;;;0.80;0.57;;;;;;;15.88;61.11;97841.47;3845889;23;20091;-57
2021/12/08 05:33:47;;;;;;;1.08;0.95;;;;;;;15.94;61.17;97843.34;3845259;23;20055;-55
2021/12/08 05:35:21;;;;;;;0.73;0.60;;;;;;;15.96;61.02;97838.59;3845924;23;20028;-55
2021/12/08 05:36:52;;;;;;;1.85;0.40;;;;;;;15.99;60.99;97832.81;3847117;23;20750;-56
2021/12/08 05:38:25;;;;;;;1.13;0.50;;;;;;;16.01;61.01;97831.59;3845615;23;20051;-58
2021/12/08 05:39:57;;;;;;;0.60;0.32;;;;;;;16.03;61.01;97832.22;3846960;23;20025;-58
2021/12/08 05:41:32;;;;;;;0.70;0.55;;;;;;;16.07;61.00;97833.47;3842035;23;20833;-56
2021/12/08 05:43:05;;;;;;;0.93;0.50;;;;;;;16.09;61.02;97830.56;3846534;23;20111;-57
2021/12/08 05:44:38;;;;;;;1.40;0.43;;;;;;;16.11;60.92;97828.53;3846397;23;20044;-57
2021/12/08 05:46:11;;;;;;;0.55;0.40;;;;;;;16.15;60.93;97832.41;3847090;23;20072;-58
2021/12/08 05:47:46;;;;;;;1.00;0.82;;;;;;;16.19;60.89;97832.84;3847188;23;20032;-57
2021/12/08 05:49:20;;;;;;;0.50;0.50;;;;;;;16.22;60.77;97827.06;3844690;23;20800;-57
2021/12/08 05:50:55;;;;;;;0.82;0.80;;;;;;;16.25;60.87;97832.81;3845960;23;20028;-57
2021/12/08 05:52:27;;;;;;;0.85;0.60;;;;;;;16.28;60.66;97821.69;3846535;23;20020;-56
2021/12/08 05:54:03;;;;;;;0.73;0.57;;;;;;;16.33;60.73;97833.66;3846750;23;20498;-57
2021/12/08 05:55:37;;;;;;;1.00;0.70;;;;;;;16.37;60.73;97821.47;3846122;23;20523;-55
2021/12/08 05:57:12;;;;;;;0.88;0.40;;;;;;;16.39;60.64;97819.44;3847354;23;20044;-54
2021/12/08 05:58:45;;;;;;;0.55;0.55;;;;;;;16.42;60.57;97814.47;3845821;23;20087;-57
2021/12/08 06:00:22;;;;;;;0.60;0.47;;;;;;;16.46;60.48;97815.69;3843431;23;20055;-57
2021/12/08 06:01:57;;;;;;;0.82;0.40;;;;;;;16.49;60.50;97815.28;3847291;23;20024;-58
2021/12/08 06:03:31;;;;;;;1.25;0.77;;;;;;;16.52;60.56;97809.50;3845987;23;20998;-57
2021/12/08 06:05:05;;;;;;;1.40;0.68;;;;;;;16.54;60.40;97803.94;3846590;23;20028;-57
2021/12/08 06:06:37;;;;;;;1.00;0.45;;;;;;;16.58;60.47;97815.06;3846168;23;20112;-56
2021/12/08 06:08:09;;;;;;;0.90;0.50;;;;;;;16.60;60.40;97808.44;3845604;23;20036;-56
2021/12/08 06:09:42;;;;;;;0.65;0.40;;;;;;;16.62;60.37;97801.03;3846423;23;20519;-57
2021/12/08 06:11:15;;;;;;;0.65;0.60;;;;;;;16.64;60.29;97796.28;3847208;23;20687;-56
2021/12/08 06:12:48;;;;;;;0.65;0.65;;;;;;;16.65;60.34;97795.25;3847677;23;20040;-57
2021/12/08 06:14:31;;;;;;;0.98;0.65;;;;;;;16.67;60.24;97792.38;3846777;23;20671;-56
2021/12/08 06:16:05;;;;;;;1.05;0.63;;;;;;;16.68;60.38;97783.31;3847138;23;20020;-56
2021/12/08 06:17:36;;;;;;;1.27;0.60;;;;;;;16.67;60.24;97787.84;3845219;23;20025;-55
2021/12/08 06:19:11;;;;;;;1.73;0.90;;;;;;;16.69;60.33;97783.09;3846898;23;20036;-55
2021/12/08 06:20:44;;;;;;;2.72;0.57;;;;;;;16.70;60.30;97775.88;3848064;23;20078;-57
2021/12/08 06:22:18;;;;;;;0.63;0.50;;;;;;;16.71;60.28;97777.53;3847215;23;20194;-56
2021/12/08 06:23:51;;;;;;;0.50;0.40;;;;;;;16.71;60.25;97786.38;3846354;23;20657;-55
2021/12/08 06:25:23;;;;;;;0.30;0.30;;;;;;;16.71;60.26;97770.31;3847073;23;20035;-57
2021/12/08 06:26:55;;;;;;;0.57;0.50;;;;;;;16.71;60.33;97772.97;3846109;23;20111;-56
2021/12/08 06:28:27;;;;;;;0.40;0.40;;;;;;;16.71;60.39;97769.47;3846800;23;20020;-55
2021/12/08 06:29:59;;;;;;;0.75;0.60;;;;;;;16.71;60.28;97758.78;3846465;23;20056;-56
2021/12/08 06:31:33;;;;;;;1.10;0.50;;;;;;;16.71;60.29;97761.44;3846880;23;20020;-57
2021/12/08 06:33:05;;;;;;;1.55;0.50;;;;;;;16.70;60.36;97752.59;3847381;23;20336;-55
2021/12/08 06:34:40;;;;;;;1.50;0.63;;;;;;;16.70;60.35;97755.28;3846543;23;20028;-56
2021/12/08 06:36:16;;;;;;;0.85;0.50;;;;;;;16.70;60.31;97760.63;3846834;23;20024;-55
2021/12/08 06:37:49;;;;;;;0.80;0.80;;;;;;;16.68;60.41;97765.38;3848583;23;20568;-56
2021/12/08 06:39:27;;;;;;;0.57;0.43;;;;;;;16.68;60.30;97768.06;3847736;23;20021;-56
2021/12/08 06:41:05;;;;;;;0.65;0.47;;;;;;;16.67;60.42;97766.41;3848092;23;20024;-56
2021/12/08 06:42:40;;;;;;;0.50;0.32;;;;;;;16.68;60.31;97765.38;3848640;23;20341;-56
2021/12/08 06:44:18;;;;;;;0.30;0.30;;;;;;;16.69;60.36;97759.00;3847603;23;20698;-55
2021/12/08 06:45:53;;;;;;;0.40;0.40;;;;;;;16.70;60.25;97754.47;3849146;23;20021;-56
2021/12/08 06:47:29;;;;;;;0.45;0.40;;;;;;;16.72;60.34;97745.19;3848494;23;20024;-57
2021/12/08 06:49:03;;;;;;;0.57;0.45;;;;;;;16.73;60.21;97735.28;3849451;23;20131;-57
2021/12/08 06:50:40;;;;;;;0.50;0.50;;;;;;;16.73;60.25;97740.66;3848343;23;20025;-56
2021/12/08 06:52:16;;;;;;;0.93;0.40;;;;;;;16.74;60.28;97737.78;3852732;23;20020;-55
2021/12/08 06:53:53;;;;;;;0.75;0.50;;;;;;;16.76;60.36;97737.53;3847963;23;20649;-55
2021/12/08 06:55:28;;;;;;;0.80;0.52;;;;;;;16.78;60.25;97746.22;3847831;23;20055;-58
2021/12/08 06:57:03;;;;;;;0.50;0.50;;;;;;;16.79;60.18;97744.38;3848607;23;20032;-56
2021/12/08 06:58:38;;;;;;;0.57;0.57;;;;;;;16.81;60.36;97734.25;3847986;23;20028;-58
2021/12/08 07:00:22;;;;;;;0.63;0.63;;;;;;;16.82;60.20;97735.91;3847286;23;20029;-56
2021/12/08 07:02:03;;;;;;;0.70;0.60;;;;;;;16.83;60.13;97726.84;3847355;23;20025;-57
2021/12/08 07:03:45;;;;;;;0.60;0.47;;;;;;;16.84;60.26;97723.13;3844239;23;20588;-56
2021/12/08 07:05:27;;;;;;;0.65;0.43;;;;;;;16.84;60.11;97723.13;3847419;23;20032;-55
2021/12/08 07:07:09;;;;;;;1.38;0.47;;;;;;;16.85;60.25;97732.78;3849032;23;20048;-57
2021/12/08 07:08:44;;;;;;;0.73;0.43;;;;;;;16.86;60.12;97729.09;3849151;23;20029;-56
2021/12/08 07:10:21;;;;;;;0.70;0.40;;;;;;;16.88;60.16;97724.31;3849231;23;20671;-57
2021/12/08 07:11:56;;;;;;;0.65;0.50;;;;;;;16.89;60.11;97717.94;3847700;23;20086;-57
2021/12/08 07:13:32;;;;;;;0.30;0.30;;;;;;;16.89;60.20;97715.28;3848366;23;20054;-56
2021/12/08 07:15:08;;;;;;;0.45;0.40;;;;;;;16.90;60.13;97716.91;3848434;23;20111;-57
2021/12/08 07:16:44;;;;;;;0.40;0.40;;;;;;;16.91;60.18;97707.81;3848527;23;20028;-56
2021/12/08 07:18:21;;;;;;;1.38;0.70;;;;;;;16.92;60.15;97696.09;3848874;23;20024;-56
2021/12/08 07:20:13;;;;;;;0.22;0.20;;;;;;;16.93;60.03;97703.06;3849262;23;20079;-56
2021/12/08 07:21:46;;;;;;;1.02;0.88;;;;;;;16.93;60.09;97692.38;3848106;23;20033;-55
2021/12/08 07:23:24;;;;;;;0.60;0.60;;;;;;;16.95;60.08;97706.38;3847666;23;20025;-56
2021/12/08 07:24:58;;;;;;;0.57;0.47;;;;;;;16.96;60.19;97702.63;3848818;23;20074;-55
2021/12/08 07:26:33;;;;;;;0.73;0.73;;;;;;;16.98;60.06;97703.25;3845642;23;20055;-56
2021/12/08 07:28:06;;;;;;;0.63;0.63;;;;;;;17.01;60.12;97693.97;3847577;23;20115;-56
2021/12/08 07:29:41;;;;;;;0.85;0.50;;;;;;;17.01;60.10;97688.63;3847898;23;20323;-54
2021/12/08 07:31:16;;;;;;;1.00;0.68;;;;;;;17.03;59.96;97699.94;3848978;23;20044;-58
2021/12/08 07:32:49;;;;;;;0.50;0.50;;;;;;;17.03;60.03;97695.41;3849186;23;20017;-56
2021/12/08 07:34:23;;;;;;;0.68;0.50;;;;;;;17.04;59.96;97690.84;3847631;23;20032;-55
2021/12/08 07:35:59;;;;;;;0.75;0.47;;;;;;;17.03;60.09;97692.72;3846530;23;20025;-57
2021/12/08 07:37:34;;;;;;;0.28;0.28;;;;;;;17.04;60.03;97697.03;3848158;23;20343;-57
2021/12/08 07:39:14;;;;;;;0.50;0.50;;;;;;;17.05;60.04;97698.69;3847904;23;20040;-59
2021/12/08 07:40:50;;;;;;;1.00;0.47;;;;;;;17.05;60.10;97701.38;3848307;23;20083;-56
2021/12/08 07:42:28;;;;;;;0.60;0.52;;;;;;;17.04;60.00;97691.66;3846916;23;20569;-56
2021/12/08 07:44:05;;;;;;;0.75;0.40;;;;;;;17.03;60.04;97695.41;3847393;23;20044;-53
2021/12/08 07:45:40;;;;;;;1.30;0.90;;;;;;;17.04;60.04;97691.66;3847486;23;20025;-56
2021/12/08 07:47:14;;;;;;;0.90;0.40;;;;;;;17.04;59.89;97672.91;3848733;23;20024;-51
2021/12/08 07:48:50;;;;;;;0.43;0.38;;;;;;;17.04;59.96;97674.78;3847378;23;20068;-55
2021/12/08 07:50:28;;;;;;;0.52;0.28;;;;;;;17.02;60.04;97675.03;3847087;23;20459;-53